Temirtau, Kazakhstan
Current Conditions -  °F | °C
As of 4:00 PM on Thursday 23 Oct 2014 (Local Time) from UAKK Reporting Station
Broken Clouds Broken Clouds  
Wind Chill: 33°   Ceiling: 1500
Heat Index: 41°   Visibility: 6mi
Dew Point: 37°   Wind: 16mph
Humidity: 87%   Direction: 250°WSW
Pressure: 29.8"   Gusts: NA
Location:  50.07°N, 72.96°E
Report Text: UAKK 231000Z 25007MPS 9999 BKN015 05/03 Q1009 R23/2///60 NOSIGRMK QFE710/0947
Loading
Personal Weather Stations






























Interactive Weather Map
Tropical Storm Tracking
New forecast layout! Learn more

10-Day Weather Forecast

Advertisements
Track Severe Weather on mobile